Wind From: 11-12-2017 12:03 Until: 12-12-2017 06:00 warning for: Wind Level: Orange info button

Power and phone distribution networks may be disrupted for relatively long periods., Roofs and chimneys can be damaged. , Tree branches may break. , Vehicles can be deported. , Traffic may be disrupted, particularly on secondary roads in forest areas. Limit your trips. , Limit your speed in highway driving, especially if you drive a vehicle or hitch sensitive to wind. , Do not go for walks in forests or along the coast., In town, be vigilant against possible falling objects., Do not work on roofs and do not touch any electrical line fallen on the ground., Store or secure sensitive objects to wind or likely to be damaged., Always install power generators outside buildings. 


Meteo18 Weather Cam more information Meteo18 Weather Cam


Thunder radar more information blitzortung!


Rain radar more information rain snow radar


Visit our other weather sites:

Template documentation
and downloads

And another site



Weather Underground History page Text

Daily Summary for November 12, 2017 Units:  Metric    English   Both
« Previous Day
Next Day »
Daily Weekly Monthly Yearly Custom
  High: Low: Average:
Temperature: 12.1 °C 4.2 °C 8.2 °C
Dew Point: 11.2 °C 2.0 °C 6.3 °C
Humidity: 95 % 76 % 88 %
Wind Speed: 37.0 km/h 0.0 km/h 14.8 km/h
Wind Gust: 53.1 km/h - -
Wind:- - WNW
Pressure: 1016.5 hPa 1006.3 hPa -
Precipitation: 5.1 mm    
Historical Graphs
 
 
Tabular Data for November 12, 2017
Time Temperature Dew Point Pressure Wind Wind Speed Wind Gust Humidity Rainfall Rate (Hourly)
00:02 12.1 °C 11.2 °C 1015.8 hPa West 6.4 km/h 27.4 km/h 94 % 0.3 mm
00:07 12.0 °C 11.2 °C 1015.8 hPa WSW 12.9 km/h 27.4 km/h 95 % 0.3 mm
00:12 12.0 °C 11.2 °C 1015.8 hPa West 8.0 km/h 20.9 km/h 95 % 0.3 mm
00:17 11.9 °C 11.1 °C 1015.8 hPa West 12.9 km/h 20.9 km/h 95 % 0.0 mm
00:22 11.9 °C 11.1 °C 1015.8 hPa WNW 9.7 km/h 22.5 km/h 95 % 0.0 mm
00:32 11.9 °C 11.1 °C 1015.8 hPa WSW 12.9 km/h 22.5 km/h 95 % 0.3 mm
00:42 11.8 °C 11.0 °C 1015.8 hPa West 16.1 km/h 20.9 km/h 95 % 0.3 mm
00:47 11.8 °C 11.0 °C 1015.8 hPa West 9.7 km/h 20.9 km/h 95 % 0.3 mm
00:57 11.8 °C 11.0 °C 1015.5 hPa West 11.3 km/h 19.3 km/h 95 % 0.3 mm
01:02 11.8 °C 11.0 °C 1015.5 hPa WSW 12.9 km/h 24.1 km/h 95 % 0.3 mm
01:07 11.9 °C 11.1 °C 1015.5 hPa West 14.5 km/h 24.1 km/h 95 % 0.3 mm
01:12 11.8 °C 11.0 °C 1015.5 hPa West 11.3 km/h 29.0 km/h 95 % 0.3 mm
01:17 11.8 °C 11.0 °C 1015.5 hPa WSW 19.3 km/h 29.0 km/h 95 % 0.3 mm
01:22 11.7 °C 10.9 °C 1015.5 hPa West 11.3 km/h 27.4 km/h 95 % 0.3 mm
01:27 11.7 °C 10.9 °C 1015.5 hPa WSW 16.1 km/h 29.0 km/h 95 % 0.5 mm
01:32 11.7 °C 10.9 °C 1015.1 hPa West 16.1 km/h 29.0 km/h 95 % 0.3 mm
01:37 11.7 °C 10.9 °C 1015.5 hPa WNW 8.0 km/h 27.4 km/h 95 % 0.3 mm
01:42 11.7 °C 10.9 °C 1015.1 hPa West 16.1 km/h 32.2 km/h 95 % 0.3 mm
01:47 11.6 °C 10.8 °C 1015.1 hPa West 14.5 km/h 32.2 km/h 95 % 0.3 mm
01:52 11.6 °C 10.8 °C 1015.1 hPa West 16.1 km/h 24.1 km/h 95 % 0.3 mm
01:57 11.6 °C 10.8 °C 1015.1 hPa West 9.7 km/h 29.0 km/h 95 % 0.3 mm
02:02 11.6 °C 10.7 °C 1015.1 hPa WNW 11.3 km/h 29.0 km/h 94 % 0.3 mm
02:07 11.6 °C 10.7 °C 1015.1 hPa WSW 12.9 km/h 24.1 km/h 94 % 0.3 mm
02:12 11.6 °C 10.7 °C 1015.1 hPa West 19.3 km/h 25.7 km/h 94 % 0.3 mm
02:17 11.6 °C 10.7 °C 1015.1 hPa West 12.9 km/h 29.0 km/h 94 % 0.3 mm
02:22 11.2 °C 10.3 °C 1015.1 hPa West 16.1 km/h 29.0 km/h 94 % 0.0 mm
02:27 11.1 °C 10.2 °C 1015.1 hPa WSW 12.9 km/h 29.0 km/h 94 % 0.0 mm
02:32 11.1 °C 10.2 °C 1014.8 hPa WSW 12.9 km/h 27.4 km/h 94 % 0.0 mm
02:37 11.1 °C 10.2 °C 1014.8 hPa WSW 12.9 km/h 22.5 km/h 94 % 0.0 mm
09:07 10.9 °C 9.8 °C 1010.4 hPa WNW 16.1 km/h 37.0 km/h 93 % 0.0 mm
09:12 10.9 °C 9.8 °C 1010.7 hPa SSW 12.9 km/h 41.8 km/h 93 % 0.0 mm
09:17 10.9 °C 9.8 °C 1010.4 hPa WSW 20.9 km/h 41.8 km/h 93 % 0.0 mm
09:22 10.9 °C 9.8 °C 1010.4 hPa West 24.1 km/h 45.1 km/h 93 % 0.0 mm
09:27 10.9 °C 9.8 °C 1010.0 hPa WSW 16.1 km/h 45.1 km/h 93 % 0.0 mm
09:32 10.9 °C 9.8 °C 1010.4 hPa West 12.9 km/h 45.1 km/h 93 % 0.0 mm
09:42 11.0 °C 9.9 °C 1010.4 hPa WSW 9.7 km/h 40.2 km/h 93 % 0.0 mm
09:47 11.1 °C 9.8 °C 1010.0 hPa WSW 27.4 km/h 40.2 km/h 92 % 0.0 mm
09:52 11.1 °C 9.8 °C 1010.0 hPa WSW 22.5 km/h 37.0 km/h 92 % 0.0 mm
10:02 11.2 °C 9.9 °C 1010.0 hPa WSW 11.3 km/h 43.4 km/h 92 % 0.0 mm
10:07 11.2 °C 9.9 °C 1010.0 hPa WSW 22.5 km/h 46.7 km/h 92 % 0.0 mm
10:12 11.2 °C 9.9 °C 1010.0 hPa WSW 20.9 km/h 53.1 km/h 92 % 0.0 mm
10:17 11.2 °C 9.9 °C 1010.0 hPa WSW 16.1 km/h 53.1 km/h 92 % 0.0 mm
10:22 11.2 °C 10.1 °C 1009.7 hPa WSW 16.1 km/h 53.1 km/h 93 % 0.0 mm
10:32 11.2 °C 10.1 °C 1009.7 hPa SW 27.4 km/h 41.8 km/h 93 % 0.0 mm
10:42 11.1 °C 10.2 °C 1009.4 hPa SW 19.3 km/h 33.8 km/h 94 % 0.0 mm
10:52 11.1 °C 10.3 °C 1009.4 hPa WSW 16.1 km/h 33.8 km/h 95 % 0.3 mm
10:57 11.1 °C 10.3 °C 1009.4 hPa WSW 11.3 km/h 38.6 km/h 95 % 0.5 mm
11:02 11.1 °C 10.3 °C 1009.4 hPa West 22.5 km/h 38.6 km/h 95 % 0.5 mm
11:12 11.2 °C 10.4 °C 1009.4 hPa WSW 16.1 km/h 37.0 km/h 95 % 0.5 mm
11:17 11.2 °C 10.4 °C 1009.0 hPa West 9.7 km/h 37.0 km/h 95 % 0.5 mm
11:22 11.2 °C 10.4 °C 1009.0 hPa West 17.7 km/h 32.2 km/h 95 % 0.5 mm
11:32 11.3 °C 10.4 °C 1008.4 hPa WSW 20.9 km/h 32.2 km/h 94 % 0.5 mm
11:42 11.4 °C 10.5 °C 1008.4 hPa West 33.8 km/h 35.4 km/h 94 % 0.5 mm
11:47 11.4 °C 10.5 °C 1008.4 hPa WSW 17.7 km/h 35.4 km/h 94 % 0.3 mm
11:52 11.6 °C 10.7 °C 1008.0 hPa NW 17.7 km/h 35.4 km/h 94 % 0.0 mm
11:57 11.6 °C 10.7 °C 1008.0 hPa WSW 22.5 km/h 40.2 km/h 94 % 0.0 mm
12:02 11.6 °C 10.7 °C 1008.0 hPa WSW 16.1 km/h 40.2 km/h 94 % 0.0 mm
12:07 11.6 °C 10.5 °C 1007.7 hPa West 25.7 km/h 40.2 km/h 93 % 0.0 mm
12:12 11.6 °C 10.7 °C 1007.7 hPa WSW 20.9 km/h 40.2 km/h 94 % 0.0 mm
12:17 11.6 °C 10.7 °C 1007.7 hPa WSW 19.3 km/h 40.2 km/h 94 % 0.0 mm
12:32 11.7 °C 10.6 °C 1007.0 hPa WSW 24.1 km/h 32.2 km/h 93 % 0.3 mm
12:37 11.8 °C 10.7 °C 1007.0 hPa West 20.9 km/h 53.1 km/h 93 % 0.3 mm
12:42 11.8 °C 10.7 °C 1006.7 hPa West 19.3 km/h 53.1 km/h 93 % 0.3 mm
12:47 11.8 °C 10.7 °C 1006.7 hPa West 22.5 km/h 53.1 km/h 93 % 0.3 mm
12:52 12.0 °C 10.9 °C 1006.7 hPa West 22.5 km/h 45.1 km/h 93 % 0.3 mm
12:57 12.1 °C 11.0 °C 1006.3 hPa West 27.4 km/h 41.8 km/h 93 % 0.3 mm
13:02 12.1 °C 11.0 °C 1006.3 hPa West 24.1 km/h 41.8 km/h 93 % 0.3 mm
13:07 12.1 °C 11.0 °C 1006.3 hPa WSW 29.0 km/h 43.4 km/h 93 % 0.3 mm
13:12 12.1 °C 11.0 °C 1006.3 hPa West 37.0 km/h 43.4 km/h 93 % 0.3 mm
13:17 12.1 °C 11.0 °C 1006.3 hPa West 19.3 km/h 48.3 km/h 93 % 0.3 mm
13:22 12.1 °C 11.0 °C 1007.3 hPa NW 14.5 km/h 48.3 km/h 93 % 0.0 mm
13:27 11.2 °C 9.5 °C 1007.7 hPa NNW 27.4 km/h 53.1 km/h 89 % 1.8 mm
13:32 10.4 °C 9.0 °C 1007.7 hPa NW 16.1 km/h 53.1 km/h 91 % 2.0 mm
13:37 9.9 °C 8.7 °C 1007.7 hPa NW 25.7 km/h 53.1 km/h 92 % 2.3 mm
13:42 9.8 °C 8.7 °C 1007.3 hPa WNW 16.1 km/h 43.4 km/h 93 % 2.5 mm
13:47 9.7 °C 8.6 °C 1007.7 hPa NW 16.1 km/h 40.2 km/h 93 % 2.5 mm
13:52 9.7 °C 8.6 °C 1008.0 hPa North 22.5 km/h 37.0 km/h 93 % 2.5 mm
13:57 8.7 °C 7.3 °C 1008.4 hPa North 20.9 km/h 38.6 km/h 91 % 2.8 mm
14:02 8.3 °C 7.1 °C 1008.4 hPa NW 22.5 km/h 38.6 km/h 92 % 2.8 mm
14:07 8.1 °C 7.0 °C 1008.4 hPa NNW 24.1 km/h 43.4 km/h 93 % 3.0 mm
14:12 7.9 °C 6.8 °C 1008.4 hPa NNE 16.1 km/h 43.4 km/h 93 % 3.3 mm
14:17 7.9 °C 6.8 °C 1008.7 hPa NNW 9.7 km/h 43.4 km/h 93 % 3.3 mm
14:22 7.7 °C 6.6 °C 1008.7 hPa WNW 11.3 km/h 33.8 km/h 93 % 3.3 mm
14:27 7.7 °C 6.8 °C 1009.0 hPa NW 16.1 km/h 33.8 km/h 94 % 1.5 mm
14:32 7.6 °C 6.7 °C 1008.7 hPa NW 24.1 km/h 33.8 km/h 94 % 1.5 mm
14:37 7.6 °C 6.5 °C 1008.4 hPa WSW 12.9 km/h 30.6 km/h 93 % 1.5 mm
14:42 7.7 °C 6.5 °C 1008.7 hPa NW 17.7 km/h 30.6 km/h 92 % 1.5 mm
14:47 7.8 °C 6.4 °C 1008.4 hPa NW 6.4 km/h 29.0 km/h 91 % 1.5 mm
14:52 7.9 °C 6.5 °C 1008.4 hPa NW 14.5 km/h 29.0 km/h 91 % 1.5 mm
14:57 7.9 °C 6.5 °C 1008.4 hPa West 17.7 km/h 29.0 km/h 91 % 1.3 mm
15:02 8.0 °C 6.6 °C 1008.7 hPa WNW 11.3 km/h 27.4 km/h 91 % 1.3 mm
15:07 8.1 °C 6.7 °C 1008.7 hPa NNW 17.7 km/h 29.0 km/h 91 % 0.8 mm
15:17 8.1 °C 6.4 °C 1008.4 hPa NW 12.9 km/h 33.8 km/h 89 % 0.5 mm
15:22 8.1 °C 6.2 °C 1008.7 hPa NNW 19.3 km/h 33.8 km/h 88 % 0.5 mm
15:32 8.2 °C 5.8 °C 1009.0 hPa WNW 16.1 km/h 40.2 km/h 85 % 0.3 mm
15:37 8.2 °C 5.7 °C 1009.0 hPa NNW 19.3 km/h 48.3 km/h 84 % 0.0 mm
15:42 8.2 °C 5.5 °C 1009.0 hPa WNW 14.5 km/h 48.3 km/h 83 % 0.0 mm
15:47 8.1 °C 4.9 °C 1009.4 hPa WNW 27.4 km/h 33.8 km/h 80 % 0.0 mm
15:52 8.0 °C 4.0 °C 1009.0 hPa WNW 12.9 km/h 48.3 km/h 76 % 0.0 mm
15:57 7.8 °C 4.0 °C 1009.4 hPa West 20.9 km/h 48.3 km/h 77 % 0.0 mm
16:02 7.6 °C 4.0 °C 1009.4 hPa NW 14.5 km/h 48.3 km/h 78 % 0.0 mm
16:07 7.4 °C 4.0 °C 1009.7 hPa WNW 12.9 km/h 37.0 km/h 79 % 0.0 mm
16:12 7.3 °C 3.9 °C 1009.7 hPa West 16.1 km/h 37.0 km/h 79 % 0.0 mm
16:17 7.2 °C 3.8 °C 1009.7 hPa WNW 17.7 km/h 37.0 km/h 79 % 0.0 mm
16:22 7.2 °C 3.8 °C 1010.0 hPa NW 22.5 km/h 37.0 km/h 79 % 0.0 mm
16:27 7.2 °C 3.6 °C 1010.0 hPa WNW 25.7 km/h 38.6 km/h 78 % 0.0 mm
16:32 7.3 °C 3.7 °C 1010.0 hPa WNW 25.7 km/h 38.6 km/h 78 % 0.0 mm
16:37 7.4 °C 3.8 °C 1010.0 hPa NW 20.9 km/h 38.6 km/h 78 % 0.0 mm
16:42 7.4 °C 3.8 °C 1010.4 hPa NNW 11.3 km/h 38.6 km/h 78 % 0.0 mm
16:47 7.4 °C 3.8 °C 1010.4 hPa WNW 14.5 km/h 38.6 km/h 78 % 0.0 mm
16:52 7.4 °C 3.8 °C 1010.4 hPa NW 9.7 km/h 33.8 km/h 78 % 0.0 mm
16:57 7.2 °C 3.6 °C 1010.7 hPa NNW 9.7 km/h 33.8 km/h 78 % 0.0 mm
17:02 7.2 °C 3.8 °C 1010.7 hPa NW 14.5 km/h 33.8 km/h 79 % 0.0 mm
17:07 7.1 °C 3.7 °C 1010.7 hPa NW 12.9 km/h 30.6 km/h 79 % 0.0 mm
17:12 7.1 °C 3.9 °C 1011.1 hPa WNW 14.5 km/h 30.6 km/h 80 % 0.0 mm
17:17 6.9 °C 4.0 °C 1011.1 hPa WNW 17.7 km/h 22.5 km/h 82 % 0.0 mm
17:22 6.7 °C 3.8 °C 1011.4 hPa NW 25.7 km/h 33.8 km/h 82 % 0.0 mm
17:27 6.2 °C 3.5 °C 1011.4 hPa NNW 14.5 km/h 46.7 km/h 83 % 0.0 mm
17:32 5.9 °C 3.1 °C 1011.4 hPa WNW 9.7 km/h 46.7 km/h 82 % 0.0 mm
17:42 5.6 °C 2.8 °C 1011.4 hPa NW 6.4 km/h 35.4 km/h 82 % 0.0 mm
17:47 5.5 °C 2.7 °C 1011.7 hPa NW 16.1 km/h 25.7 km/h 82 % 0.0 mm
17:52 5.5 °C 2.5 °C 1011.7 hPa WNW 16.1 km/h 24.1 km/h 81 % 0.0 mm
17:57 5.4 °C 2.4 °C 1011.7 hPa NW 11.3 km/h 27.4 km/h 81 % 0.0 mm
18:02 5.4 °C 2.4 °C 1012.1 hPa WNW 11.3 km/h 27.4 km/h 81 % 0.0 mm
18:12 5.3 °C 2.3 °C 1012.1 hPa NNW 14.5 km/h 35.4 km/h 81 % 0.0 mm
18:17 5.2 °C 2.4 °C 1012.1 hPa NW 11.3 km/h 35.4 km/h 82 % 0.0 mm
18:22 5.2 °C 2.4 °C 1012.4 hPa NNW 12.9 km/h 25.7 km/h 82 % 0.0 mm
18:32 5.3 °C 2.5 °C 1012.4 hPa WNW 17.7 km/h 27.4 km/h 82 % 0.0 mm
18:42 5.2 °C 2.5 °C 1012.8 hPa West 14.5 km/h 32.2 km/h 83 % 0.0 mm
18:47 5.3 °C 2.6 °C 1012.8 hPa NW 14.5 km/h 29.0 km/h 83 % 0.0 mm
18:52 5.3 °C 2.6 °C 1013.1 hPa NNW 12.9 km/h 29.0 km/h 83 % 0.0 mm
18:57 5.3 °C 2.6 °C 1013.1 hPa West 11.3 km/h 29.0 km/h 83 % 0.0 mm
19:02 5.3 °C 2.6 °C 1013.4 hPa WNW 19.3 km/h 29.0 km/h 83 % 0.0 mm
19:07 5.3 °C 2.6 °C 1013.4 hPa NNW 4.8 km/h 25.7 km/h 83 % 0.0 mm
19:12 5.2 °C 2.5 °C 1013.4 hPa NW 11.3 km/h 24.1 km/h 83 % 0.0 mm
19:17 5.1 °C 2.5 °C 1013.8 hPa WNW 11.3 km/h 24.1 km/h 83 % 0.0 mm
19:22 5.0 °C 2.5 °C 1013.8 hPa WNW 29.0 km/h 29.0 km/h 84 % 0.0 mm
19:27 4.9 °C 2.4 °C 1013.8 hPa WNW 14.5 km/h 29.0 km/h 84 % 0.0 mm
19:32 4.9 °C 2.4 °C 1013.8 hPa NNW 12.9 km/h 29.0 km/h 84 % 0.0 mm
19:37 4.8 °C 2.3 °C 1013.8 hPa NNW 6.4 km/h 29.0 km/h 84 % 0.0 mm
19:42 4.8 °C 2.3 °C 1013.8 hPa NW 9.7 km/h 27.4 km/h 84 % 0.0 mm
19:47 4.8 °C 2.3 °C 1014.1 hPa NW 4.8 km/h 27.4 km/h 84 % 0.0 mm
19:57 4.8 °C 2.5 °C 1014.1 hPa NW 11.3 km/h 20.9 km/h 85 % 0.0 mm
20:07 4.8 °C 2.5 °C 1014.4 hPa NNW 19.3 km/h 20.9 km/h 85 % 0.0 mm
20:12 4.8 °C 2.5 °C 1014.4 hPa NNW 11.3 km/h 22.5 km/h 85 % 0.0 mm
20:17 4.8 °C 2.5 °C 1014.4 hPa NW 6.4 km/h 25.7 km/h 85 % 0.0 mm
20:27 4.7 °C 2.6 °C 1014.8 hPa NW 3.2 km/h 25.7 km/h 86 % 0.0 mm
20:32 4.6 °C 2.5 °C 1014.8 hPa WNW 6.4 km/h 20.9 km/h 86 % 0.0 mm
20:37 4.6 °C 2.5 °C 1014.8 hPa NW 3.2 km/h 20.9 km/h 86 % 0.0 mm
20:42 4.5 °C 2.4 °C 1014.8 hPa NW 4.8 km/h 20.9 km/h 86 % 0.0 mm
20:47 4.5 °C 2.4 °C 1014.8 hPa NNW 4.8 km/h 19.3 km/h 86 % 0.0 mm
20:52 4.4 °C 2.3 °C 1014.8 hPa NW 3.2 km/h 19.3 km/h 86 % 0.0 mm
20:57 4.4 °C 2.3 °C 1015.1 hPa NW 4.8 km/h 19.3 km/h 86 % 0.0 mm
21:02 4.4 °C 2.3 °C 1015.1 hPa WNW 4.8 km/h 17.7 km/h 86 % 0.0 mm
21:07 4.4 °C 2.3 °C 1015.1 hPa WNW 4.8 km/h 17.7 km/h 86 % 0.0 mm
21:12 4.4 °C 2.3 °C 1015.5 hPa NNW 8.0 km/h 14.5 km/h 86 % 0.0 mm
21:17 4.3 °C 2.0 °C 1015.5 hPa NW 9.7 km/h 14.5 km/h 85 % 0.0 mm
21:22 4.3 °C 2.0 °C 1015.5 hPa NNW 8.0 km/h 17.7 km/h 85 % 0.0 mm
21:32 4.3 °C 2.0 °C 1015.5 hPa NW 6.4 km/h 22.5 km/h 85 % 0.0 mm
21:37 4.3 °C 2.0 °C 1015.5 hPa West 3.2 km/h 22.5 km/h 85 % 0.0 mm
21:42 4.2 °C 2.1 °C 1015.5 hPa WNW 8.0 km/h 22.5 km/h 86 % 0.0 mm
21:47 4.2 °C 2.1 °C 1015.5 hPa NW 8.0 km/h 14.5 km/h 86 % 0.0 mm
21:52 4.3 °C 2.2 °C 1015.5 hPa WNW 12.9 km/h 19.3 km/h 86 % 0.0 mm
21:57 4.3 °C 2.2 °C 1015.8 hPa West 12.9 km/h 19.3 km/h 86 % 0.0 mm
22:02 4.4 °C 2.1 °C 1015.8 hPa NW 9.7 km/h 19.3 km/h 85 % 0.0 mm
22:07 4.5 °C 2.2 °C 1015.8 hPa Calm   17.7 km/h 85 % 0.0 mm
22:12 4.7 °C 2.4 °C 1015.8 hPa West 14.5 km/h 30.6 km/h 85 % 0.0 mm
22:17 4.8 °C 2.3 °C 1015.8 hPa NNW 20.9 km/h 30.6 km/h 84 % 0.0 mm
22:22 4.9 °C 2.3 °C 1015.8 hPa WNW 14.5 km/h 30.6 km/h 83 % 0.0 mm
22:27 4.9 °C 2.3 °C 1015.8 hPa NW 11.3 km/h 20.9 km/h 83 % 0.0 mm
22:32 5.0 °C 2.4 °C 1015.8 hPa NW 8.0 km/h 20.9 km/h 83 % 0.0 mm
22:37 5.0 °C 2.4 °C 1015.8 hPa NW 12.9 km/h 20.9 km/h 83 % 0.0 mm
22:42 5.0 °C 2.4 °C 1016.1 hPa West 8.0 km/h 20.9 km/h 83 % 0.0 mm
22:47 5.0 °C 2.4 °C 1016.1 hPa WNW 20.9 km/h 24.1 km/h 83 % 0.0 mm
22:52 5.0 °C 2.4 °C 1016.1 hPa WNW 8.0 km/h 27.4 km/h 83 % 0.0 mm
23:02 5.0 °C 2.4 °C 1016.1 hPa NNW 12.9 km/h 27.4 km/h 83 % 0.0 mm
23:07 5.0 °C 2.4 °C 1015.8 hPa WNW 17.7 km/h 22.5 km/h 83 % 0.0 mm
23:12 5.1 °C 2.5 °C 1016.1 hPa NW 8.0 km/h 25.7 km/h 83 % 0.0 mm
23:17 5.1 °C 2.5 °C 1016.1 hPa NW 12.9 km/h 29.0 km/h 83 % 0.0 mm
23:22 5.1 °C 2.5 °C 1016.1 hPa North 11.3 km/h 29.0 km/h 83 % 0.0 mm
23:27 5.1 °C 2.5 °C 1016.1 hPa NW 16.1 km/h 25.7 km/h 83 % 0.0 mm
23:32 5.0 °C 2.4 °C 1016.1 hPa WNW 11.3 km/h 25.7 km/h 83 % 0.0 mm
23:37 5.1 °C 2.5 °C 1016.1 hPa NW 6.4 km/h 25.7 km/h 83 % 0.0 mm
23:42 5.1 °C 2.5 °C 1016.5 hPa NW 8.0 km/h 25.7 km/h 83 % 0.0 mm
23:52 5.0 °C 2.4 °C 1016.5 hPa WNW 16.1 km/h 25.7 km/h 83 % 0.0 mm
23:57 5.0 °C 2.4 °C 1016.5 hPa NW 6.4 km/h 25.7 km/h 83 % 0.0 mm
Meteo18
Compliments of Weather Underground - 4 mb

Script developed by  Jim McMurry - jmcmurry@mwt.net Adapted for the template by  Wim van der Kuil - Leuven-Template.eu

You find our weather info also at:

European Weather Network

Weather Underground

Equipment we use:

Weather-station
Davis Vue

Weather-program
Meteohub

Weather-server
Raspberry PI 2 B+

Provider
1 and 1

Davis Vue

Meteohub

Raspberry PI 2 B+

1 and 1